KMAF/MAF METAR and TAF weather

Enter ICAO airport designator
Station Type Date Time Source
KMAF METAR 2019/12/11 12:10 UTC NOAA

KMAF 111210Z 20008KT 1 1/2SM BR OVC003 03/02 A3035 RMK AO2 VIS 3/4V5 T00280022


Station Type Date Time Source
KMAF Decoded METAR 2019/12/11 12:10 UTC NOAA

MIDLAND INTERNATIONAL AIRPORT , TX, United States (KMAF) 31-56N 102-12W 872M
Dec 11, 2019 - 07:10 AM EST / 2019.12.11 1210 UTC
Wind: from the SSW (200 degrees) at 9 MPH (8 KT):0
Visibility: 1 1/2 mile(s):0
Sky conditions: overcast
Weather: mist
Temperature: 37.0 F (2.8 C)
Dew Point: 36.0 F (2.2 C)
Relative Humidity: 95%
Pressure (altimeter): 30.35 in. Hg (1027 hPa)
ob: KMAF 111210Z 20008KT 1 1/2SM BR OVC003 03/02 A3035 RMK AO2 VIS 3/4V5 T00280022
cycle: 12

Station Type Date Time Source
KMAF TAF 2019/12/11 12:54 UTC NOAA

TAF
AMD KMAF 111153Z 1112/1212 17011KT 6SM BR BKN004
FM111800 17014KT P6SM BKN019
FM112000 17015G20KT P6SM FEW250
FM120000 17012KT P6SM SCT200

Example: see airport list